Kieffer, West Virginia
Current Conditions -  °F | °C
As of 1:55 AM on Monday 24 Nov 2014 (Local Time) from KLWB Reporting Station
Overcast Overcast  
Wind Chill: 58°   Ceiling: 5500
Heat Index: 58°   Visibility: 10mi
Dew Point: 49°   Wind: 7mph
Humidity: 73%   Direction: 210°SSW
Pressure: 29.62"   Gusts: NA
Location:  37.94°N, 80.61°W
Report Text: KLWB 240655Z AUTO 21006KT 10SM OVC055 15/10 A2962 RMK AO2 T01450097
Loading
Personal Weather Stations






























Interactive Weather Map New forecast layout! Learn more

10-Day Weather Forecast

Advertisements
Track Severe Weather on mobile